createdAt,value
2022-09-27T03:58:33.288Z,99046.81
2022-09-27T04:01:42.128Z,99052.88
2022-09-27T04:04:48.572Z,99050.81
2022-09-27T04:11:57.709Z,99045.09
2022-09-27T04:15:00.715Z,99047.16
2022-09-27T04:18:06.480Z,99044.69
2022-09-27T04:21:12.766Z,99047.59
2022-09-27T04:24:16.642Z,99050.28
2022-09-27T04:27:55.318Z,99045.53
2022-09-27T04:30:58.421Z,99039.56
2022-09-27T04:34:02.913Z,99039.16
2022-09-27T04:37:08.035Z,99023.41
2022-09-27T04:40:11.153Z,99029.41
2022-09-27T04:43:13.655Z,99032.94
2022-09-27T04:46:16.868Z,99034.56
2022-09-27T04:49:59.344Z,99023.97
2022-09-27T04:53:02.594Z,99030.38
2022-09-27T04:56:07.293Z,99023.34
2022-09-27T04:59:12.091Z,99021.84
2022-09-27T05:02:15.319Z,99026.03
2022-09-27T05:05:19.336Z,99023.28
2022-09-27T05:08:22.307Z,99024.50
2022-09-27T05:11:30.757Z,99013.91
2022-09-27T05:14:34.643Z,99005.34
2022-09-27T05:17:37.526Z,98998.84
2022-09-27T05:20:44.708Z,99011.69
2022-09-27T05:23:48.580Z,99018.47
2022-09-27T05:26:51.164Z,99012.25
2022-09-27T05:29:55.174Z,99007.16
2022-09-27T05:32:58.766Z,98999.25
2022-09-27T05:36:07.140Z,99000.88
2022-09-27T05:39:10.420Z,99002.56
2022-09-27T05:42:15.458Z,98994.37
2022-09-27T05:45:18.812Z,98982.63
2022-09-27T05:48:22.273Z,98980.53
2022-09-27T05:51:31.127Z,98983.91
2022-09-27T05:54:34.547Z,98975.22
2022-09-27T06:01:54.409Z,98973.19
2022-09-27T06:09:02.935Z,98981.50
2022-09-27T06:23:24.447Z,99001.38
2022-09-27T06:26:28.035Z,98996.66
2022-09-27T06:33:38.581Z,98984.38
2022-09-27T06:36:41.536Z,98990.34
2022-09-27T06:40:09.569Z,98987.97
2022-09-27T06:47:23.814Z,98992.91
2022-09-27T06:50:26.768Z,98983.00
2022-09-27T06:53:30.108Z,98982.28
2022-09-27T06:56:32.978Z,98985.41
2022-09-27T06:59:56.462Z,98976.50
2022-09-27T07:03:06.156Z,98978.53
2022-09-27T07:06:18.618Z,98972.13
2022-09-27T07:09:21.884Z,98975.34
2022-09-27T07:12:24.789Z,98991.19
2022-09-27T07:15:29.281Z,98996.94
2022-09-27T07:18:32.906Z,99002.03
2022-09-27T07:21:36.082Z,98999.66
2022-09-27T07:24:38.709Z,99007.19
2022-09-27T07:27:42.077Z,99000.03
2022-09-27T07:30:45.745Z,98989.91
2022-09-27T07:33:48.832Z,98989.66
2022-09-27T07:36:52.025Z,99001.44
2022-09-27T07:44:02.311Z,99006.88
2022-09-27T07:47:47.459Z,98992.31
2022-09-27T07:54:56.498Z,98983.47
2022-09-27T07:58:11.660Z,98980.25
2022-09-27T08:01:16.462Z,98974.13
2022-09-27T08:04:19.382Z,98980.28
2022-09-27T08:07:22.385Z,98980.03
2022-09-27T08:10:31.416Z,98979.75
2022-09-27T08:13:34.604Z,98977.94
2022-09-27T08:16:37.775Z,98968.25
2022-09-27T08:19:45.146Z,98957.50
2022-09-27T08:22:48.895Z,98946.25
2022-09-27T08:25:54.426Z,98952.59
2022-09-27T08:28:57.295Z,98961.81
2022-09-27T08:32:45.443Z,98971.72
2022-09-27T08:35:48.801Z,98966.88
2022-09-27T08:38:52.268Z,98965.34
2022-09-27T08:46:47.464Z,98970.53
2022-09-27T08:50:10.292Z,98956.69
2022-09-27T08:53:22.080Z,98950.84
2022-09-27T08:56:26.210Z,98946.19
2022-09-27T08:59:34.341Z,98946.75
2022-09-27T09:02:38.437Z,98945.97
2022-09-27T09:05:41.139Z,98956.09
2022-09-27T09:08:56.474Z,98964.19
2022-09-27T09:12:34.301Z,98968.50
2022-09-27T09:15:58.547Z,98954.53
2022-09-27T09:19:16.776Z,98952.47
2022-09-27T09:22:55.294Z,98946.72
2022-09-27T09:26:29.718Z,98941.56
2022-09-27T09:29:50.964Z,98929.16
2022-09-27T09:32:59.378Z,98924.47
2022-09-27T09:36:11.235Z,98919.72
2022-09-27T09:39:23.174Z,98907.69
2022-09-27T09:42:40.336Z,98897.34
2022-09-27T09:45:48.275Z,98891.34
2022-09-27T09:49:16.451Z,98896.50
2022-09-27T09:52:24.391Z,98898.88
2022-09-27T09:55:33.552Z,98900.19
2022-09-27T09:58:46.443Z,98907.00
2022-09-27T10:01:49.691Z,98899.94
2022-09-27T10:04:54.818Z,98896.28
2022-09-27T10:08:07.896Z,98896.72
2022-09-27T10:11:22.703Z,98887.44
2022-09-27T10:14:27.164Z,98891.81
2022-09-27T10:17:44.889Z,98887.16
2022-09-27T10:21:01.483Z,98891.59
2022-09-27T10:24:17.734Z,98881.37
2022-09-27T10:27:25.600Z,98880.31
2022-09-27T10:30:35.361Z,98870.06
2022-09-27T10:33:51.145Z,98866.16
2022-09-27T10:37:12.377Z,98865.72
2022-09-27T10:40:28.001Z,98865.44
2022-09-27T10:43:35.562Z,98868.38
2022-09-27T10:46:51.670Z,98869.12
2022-09-27T10:50:06.732Z,98866.84
2022-09-27T10:53:20.482Z,98857.75
2022-09-27T10:56:31.696Z,98856.19
2022-09-27T10:59:39.381Z,98855.56
2022-09-27T11:02:43.549Z,98854.50
2022-09-27T11:05:47.564Z,98850.22
2022-09-27T11:08:52.502Z,98843.66
2022-09-27T11:12:13.372Z,98846.41
2022-09-27T11:15:19.205Z,98836.72
2022-09-27T11:18:28.018Z,98842.16
2022-09-27T11:21:42.624Z,98839.38
2022-09-27T11:24:45.416Z,98835.63
2022-09-27T11:28:24.540Z,98829.63
2022-09-27T11:31:36.290Z,98826.66
2022-09-27T11:34:57.670Z,98818.19
2022-09-27T11:38:29.861Z,98814.78
2022-09-27T11:41:58.315Z,98810.91
2022-09-27T11:45:45.288Z,98799.88
2022-09-27T11:49:00.179Z,98801.19
2022-09-27T11:52:42.953Z,98790.47
2022-09-27T11:56:23.166Z,98783.16
2022-09-27T11:59:51.402Z,98785.69
2022-09-27T12:03:17.516Z,98787.41
2022-09-27T12:06:56.264Z,98776.56
2022-09-27T12:10:05.146Z,98771.28
2022-09-27T12:13:13.492Z,98758.78
2022-09-27T12:16:21.076Z,98755.19
2022-09-27T12:19:31.304Z,98758.13
2022-09-27T12:22:58.531Z,98745.41
2022-09-27T12:26:20.873Z,98742.34
2022-09-27T12:29:34.367Z,98749.97
2022-09-27T12:32:50.871Z,98743.53
2022-09-27T12:36:04.589Z,98741.31
2022-09-27T12:39:22.536Z,98740.34
2022-09-27T12:42:50.129Z,98733.75
2022-09-27T12:46:14.873Z,98732.19
2022-09-27T12:49:34.642Z,98720.41
2022-09-27T12:52:44.897Z,98719.91
2022-09-27T12:55:55.549Z,98713.37
2022-09-27T12:59:12.828Z,98725.25
2022-09-27T13:02:27.802Z,98717.19
2022-09-27T13:06:12.064Z,98714.81
2022-09-27T13:09:47.361Z,98709.19
2022-09-27T13:12:54.571Z,98707.44
2022-09-27T13:16:00.650Z,98701.28
2022-09-27T13:19:04.196Z,98705.81
2022-09-27T13:22:27.270Z,98700.44
2022-09-27T13:25:56.212Z,98691.44
2022-09-27T13:29:03.937Z,98698.75
2022-09-27T13:32:21.469Z,98696.25
2022-09-27T13:35:27.144Z,98694.47
2022-09-27T13:38:33.080Z,98692.00
2022-09-27T13:41:45.116Z,98681.87
2022-09-27T13:45:20.134Z,98678.81
2022-09-27T13:48:28.968Z,98686.16
2022-09-27T13:51:53.304Z,98681.87
2022-09-27T13:54:58.508Z,98671.81
2022-09-27T13:58:05.588Z,98665.03
2022-09-27T14:01:30.758Z,98661.69
2022-09-27T14:04:51.486Z,98662.88
2022-09-27T14:07:56.478Z,98664.38
2022-09-27T14:11:01.759Z,98661.81
2022-09-27T14:14:14.138Z,98662.69
2022-09-27T14:17:17.494Z,98690.53
2022-09-27T14:20:33.640Z,98711.88
2022-09-27T14:23:38.033Z,98728.41
2022-09-27T14:26:42.735Z,98733.13
2022-09-27T14:30:01.755Z,98745.47
2022-09-27T14:33:31.705Z,98737.44
2022-09-27T14:37:07.507Z,98749.81
2022-09-27T14:56:37.295Z,98765.03
2022-09-27T14:59:46.105Z,98759.50
2022-09-27T15:02:57.191Z,98763.50
2022-09-27T15:06:02.577Z,98763.94
2022-09-27T15:17:23.508Z,98757.16
2022-09-27T15:20:32.184Z,98767.84
2022-09-27T15:23:41.289Z,98763.03
2022-09-27T15:26:47.525Z,98771.22
2022-09-27T15:38:33.326Z,98776.81
2022-09-27T15:49:55.434Z,98799.22
2022-09-27T15:52:58.535Z,98801.25
2022-09-27T15:56:09.049Z,98809.19
